Time;durP1;ratioP1;P1;durP2;ratioP2;P2;SDS_P1;SDS_P2;PMS_P1;PMS_P2;Temp;Humidity;BMP_temperature;BMP_pressure;BME280_temperature;BME280_humidity;BME280_pressure;Samples;Min_cycle;Max_cycle;Signal;HPM_P1;HPM_P2
2023/12/18 00:01:05;;;;;;;;;;;;;;;10.35;45.13;100281.34;5069597;28;19916;-65
2023/12/18 00:03:30;;;;;;;;;;;;;;;10.40;44.90;100294.16;5068954;28;20482;-65
2023/12/18 00:05:56;;;;;;;;;;;;;;;10.37;44.61;100297.25;5066137;28;19920;-65
2023/12/18 00:08:21;;;;;;;;;;;;;;;10.41;44.80;100306.56;5049903;28;19913;-66
2023/12/18 00:10:46;;;;;;;;;;;;;;;10.38;44.28;100299.75;5072001;28;20385;-66
2023/12/18 00:13:12;;;;;;;;;;;;;;;10.34;44.24;100303.84;5103058;28;19919;-64
2023/12/18 00:15:37;;;;;;;;;;;;;;;10.28;44.38;100305.41;5094462;28;19961;-64
2023/12/18 00:18:02;;;;;;;;;;;;;;;10.28;44.15;100318.03;5097287;28;19969;-64
2023/12/18 00:20:28;;;;;;;;;;;;;;;10.24;44.71;100285.38;5091893;28;20277;-65
2023/12/18 00:22:53;;;;;;;;;;;;;;;10.25;44.84;100305.84;5097494;28;19934;-65
2023/12/18 00:25:20;;;;;;;;;;;;;;;10.22;44.31;100302.72;5093634;28;19952;-65
2023/12/18 00:27:45;;;;;;;;;;;;;;;10.17;44.46;100313.19;5104634;28;20712;-64
2023/12/18 00:30:11;;;;;;;;;;;;;;;10.13;44.11;100318.13;5088099;28;20327;-64
2023/12/18 00:32:36;;;;;;;;;;;;;;;10.11;44.39;100316.66;5101248;28;19919;-63
2023/12/18 00:35:02;;;;;;;;;;;;;;;10.07;44.08;100313.53;5094611;28;19934;-64
2023/12/18 00:37:27;;;;;;;;;;;;;;;10.06;44.04;100307.31;5096519;28;19916;-64
2023/12/18 00:39:53;;;;;;;;;;;;;;;10.05;44.37;100308.34;5098628;28;19912;-64
2023/12/18 00:42:18;;;;;;;;;;;;;;;10.05;44.22;100311.03;5115637;28;20041;-64
2023/12/18 00:44:43;;;;;;;;;;;;;;;10.07;44.25;100308.16;5114409;28;19916;-64
2023/12/18 00:47:09;;;;;;;;;;;;;;;10.05;44.20;100315.59;5114289;28;19918;-67
2023/12/18 00:49:35;;;;;;;;;;;;;;;9.98;44.55;100307.47;5112243;28;19916;-67
2023/12/18 00:52:00;;;;;;;;;;;;;;;9.94;44.31;100313.44;5111878;28;19911;-66
2023/12/18 00:54:26;;;;;;;;;;;;;;;9.92;44.44;100307.41;5112918;28;20003;-67
2023/12/18 00:56:52;;;;;;;;;;;;;;;9.88;44.10;100298.94;5115047;28;20439;-66
2023/12/18 00:59:17;;;;;;;;;;;;;;;9.86;44.18;100298.28;5114222;28;19960;-66
2023/12/18 01:01:43;;;;;;;;;;;;;;;9.85;44.03;100304.69;5091494;28;19913;-66
2023/12/18 01:04:08;;;;;;;;;;;;;;;9.80;44.21;100302.56;5075417;28;19973;-66
2023/12/18 01:06:34;;;;;;;;;;;;;;;9.77;43.81;100312.84;5099125;28;19919;-66
2023/12/18 01:08:59;;;;;;;;;;;;;;;9.76;44.08;100330.78;5116253;28;19911;-68
2023/12/18 01:11:24;;;;;;;;;;;;;;;9.78;44.13;100312.66;5115537;28;19926;-67
2023/12/18 01:13:50;;;;;;;;;;;;;;;9.78;43.68;100309.16;5113015;28;19926;-68
2023/12/18 01:16:15;;;;;;;;;;;;;;;9.77;44.15;100308.31;5095735;28;19916;-68
2023/12/18 01:18:42;;;;;;;;;;;;;;;9.76;44.16;100309.34;5078273;28;19943;-67
2023/12/18 01:21:08;;;;;;;;;;;;;;;9.75;43.98;100312.19;5104458;28;20280;-68
2023/12/18 01:23:33;;;;;;;;;;;;;;;9.76;44.11;100317.38;5115886;28;19920;-68
2023/12/18 01:25:58;;;;;;;;;;;;;;;9.79;44.29;100322.38;5104937;28;20006;-67
2023/12/18 01:28:24;;;;;;;;;;;;;;;9.82;44.15;100313.09;5095158;28;19998;-68
2023/12/18 01:30:49;;;;;;;;;;;;;;;9.89;44.35;100319.34;5095034;28;19912;-68
2023/12/18 01:33:14;;;;;;;;;;;;;;;9.93;44.36;100330.53;5095271;28;19927;-67
2023/12/18 01:35:40;;;;;;;;;;;;;;;9.99;44.26;100325.25;5095132;28;19919;-67
2023/12/18 01:38:05;;;;;;;;;;;;;;;10.07;44.07;100321.59;5094988;28;19924;-67
2023/12/18 01:40:30;;;;;;;;;;;;;;;10.14;44.07;100335.88;5095336;28;20007;-67
2023/12/18 01:42:56;;;;;;;;;;;;;;;10.11;43.88;100322.84;5095356;28;19959;-67
2023/12/18 01:45:21;;;;;;;;;;;;;;;10.12;43.87;100316.44;5095163;28;19970;-68
2023/12/18 01:47:47;;;;;;;;;;;;;;;10.09;44.24;100303.44;5094997;28;19916;-67
2023/12/18 01:50:13;;;;;;;;;;;;;;;10.08;44.23;100313.34;5094993;28;19919;-67
2023/12/18 01:52:38;;;;;;;;;;;;;;;10.10;44.21;100314.97;5094689;28;19918;-67
2023/12/18 01:55:05;;;;;;;;;;;;;;;10.05;44.39;100305.66;5094678;28;19912;-68
2023/12/18 01:57:31;;;;;;;;;;;;;;;10.05;44.08;100321.78;5095827;28;20377;-67
2023/12/18 01:59:57;;;;;;;;;;;;;;;10.06;44.39;100323.41;5076684;28;19912;-67
2023/12/18 02:02:22;;;;;;;;;;;;;;;10.07;44.06;100317.03;5094697;28;20319;-67
2023/12/18 02:04:48;;;;;;;;;;;;;;;10.04;44.16;100312.06;5094723;28;19917;-67
2023/12/18 02:07:13;;;;;;;;;;;;;;;10.00;44.38;100320.69;5095365;28;19912;-67
2023/12/18 02:09:40;;;;;;;;;;;;;;;9.96;44.30;100336.34;5095376;28;19912;-67
2023/12/18 02:12:06;;;;;;;;;;;;;;;9.92;44.36;100339.59;5095212;28;19920;-68
2023/12/18 02:14:31;;;;;;;;;;;;;;;9.89;44.06;100341.63;5094630;28;20428;-68
2023/12/18 02:16:57;;;;;;;;;;;;;;;9.88;44.17;100328.44;5094908;28;19919;-67
2023/12/18 02:19:26;;;;;;;;;;;;;;;9.87;44.37;100337.50;5094573;28;19948;-67
2023/12/18 02:21:52;;;;;;;;;;;;;;;9.85;44.08;100335.00;5094274;28;19912;-67
2023/12/18 02:24:18;;;;;;;;;;;;;;;9.82;44.11;100339.91;5076126;28;20015;-67
2023/12/18 02:26:43;;;;;;;;;;;;;;;9.79;44.24;100335.78;5094471;28;20356;-68
2023/12/18 02:29:09;;;;;;;;;;;;;;;9.78;44.24;100344.81;5094578;28;19911;-68
2023/12/18 02:31:36;;;;;;;;;;;;;;;9.75;44.06;100339.00;5076421;28;19916;-67
2023/12/18 02:34:01;;;;;;;;;;;;;;;9.75;44.05;100326.47;5094180;28;19966;-67
2023/12/18 02:36:28;;;;;;;;;;;;;;;9.76;44.04;100332.66;5093935;28;19919;-68
2023/12/18 02:38:53;;;;;;;;;;;;;;;9.84;44.24;100337.88;5093898;28;19912;-68
2023/12/18 02:41:20;;;;;;;;;;;;;;;9.88;44.44;100323.06;5093651;28;20357;-67
2023/12/18 02:43:45;;;;;;;;;;;;;;;9.95;44.27;100326.63;5093845;28;19961;-67
2023/12/18 02:46:11;;;;;;;;;;;;;;;9.99;44.16;100327.06;5102559;28;19911;-67
2023/12/18 02:48:36;;;;;;;;;;;;;;;10.05;44.61;100318.25;5114604;28;19931;-67
2023/12/18 02:51:06;;;;;;;;;;;;;;;10.11;44.70;100317.47;5114362;28;19916;-68
2023/12/18 02:53:31;;;;;;;;;;;;;;;10.11;44.21;100312.13;5097779;28;19912;-68
2023/12/18 02:55:57;;;;;;;;;;;;;;;10.10;43.82;100318.50;5094961;28;20384;-67
2023/12/18 02:58:23;;;;;;;;;;;;;;;10.07;43.86;100318.91;5114149;28;19978;-67
2023/12/18 03:00:49;;;;;;;;;;;;;;;10.01;43.76;100328.56;5113922;28;19912;-67
2023/12/18 03:03:14;;;;;;;;;;;;;;;10.02;44.10;100321.31;5096641;28;19922;-68
2023/12/18 03:05:39;;;;;;;;;;;;;;;10.00;44.41;100326.06;5093704;28;19920;-68
2023/12/18 03:08:05;;;;;;;;;;;;;;;9.98;44.12;100336.16;5093922;28;19916;-68
2023/12/18 03:10:30;;;;;;;;;;;;;;;9.95;44.07;100328.47;5093900;28;19919;-67
2023/12/18 03:12:55;;;;;;;;;;;;;;;9.98;44.08;100331.59;5093261;28;19924;-67
2023/12/18 03:15:21;;;;;;;;;;;;;;;10.03;44.01;100329.19;5093424;28;19912;-67
2023/12/18 03:17:46;;;;;;;;;;;;;;;9.92;44.33;100313.63;5088465;28;19923;-66
2023/12/18 03:20:12;;;;;;;;;;;;;;;9.95;44.61;100326.63;5072681;28;19966;-66
2023/12/18 03:22:37;;;;;;;;;;;;;;;9.95;44.53;100331.16;5093720;28;19912;-67
2023/12/18 03:25:03;;;;;;;;;;;;;;;9.92;44.28;100318.13;5093087;28;20300;-66
2023/12/18 03:27:29;;;;;;;;;;;;;;;9.89;44.37;100322.84;5093481;28;19916;-66
2023/12/18 03:29:54;;;;;;;;;;;;;;;9.93;45.00;100325.16;5093598;28;19912;-67
2023/12/18 03:32:19;;;;;;;;;;;;;;;9.89;44.68;100330.91;5093501;28;19912;-67
2023/12/18 03:34:46;;;;;;;;;;;;;;;9.87;44.86;100334.81;5093487;28;19912;-67
2023/12/18 03:37:12;;;;;;;;;;;;;;;9.93;44.76;100333.22;5110359;28;19919;-67
2023/12/18 03:39:37;;;;;;;;;;;;;;;9.98;45.55;100323.56;5113844;28;19915;-67
2023/12/18 03:42:02;;;;;;;;;;;;;;;10.06;45.70;100331.47;5113408;28;20367;-67
2023/12/18 03:44:28;;;;;;;;;;;;;;;10.10;45.41;100331.91;5113595;28;19944;-67
2023/12/18 03:46:53;;;;;;;;;;;;;;;10.13;44.94;100336.91;5113882;28;20340;-66
2023/12/18 03:49:18;;;;;;;;;;;;;;;10.18;45.27;100337.16;5101298;28;19965;-66
2023/12/18 03:51:44;;;;;;;;;;;;;;;10.22;44.71;100343.78;5107173;28;19911;-66
2023/12/18 03:54:09;;;;;;;;;;;;;;;10.27;45.09;100352.09;5112924;28;19920;-66
2023/12/18 03:56:34;;;;;;;;;;;;;;;10.27;45.04;100357.47;5097269;28;19919;-67
2023/12/18 03:59:00;;;;;;;;;;;;;;;10.30;45.36;100347.34;5097649;28;19919;-66
2023/12/18 04:01:31;;;;;;;;;;;;;;;10.29;45.72;100354.59;5097102;28;19916;-68
2023/12/18 04:03:56;;;;;;;;;;;;;;;10.28;45.95;100353.72;5097504;28;20078;-67
2023/12/18 04:06:21;;;;;;;;;;;;;;;10.30;45.61;100355.41;5096864;28;20317;-67
2023/12/18 04:08:47;;;;;;;;;;;;;;;10.26;45.61;100355.78;5096902;28;20307;-67
2023/12/18 04:11:16;;;;;;;;;;;;;;;10.25;45.64;100355.97;5078745;28;19974;-67
2023/12/18 04:13:41;;;;;;;;;;;;;;;10.25;45.71;100358.66;5096362;28;19920;-67
2023/12/18 04:16:07;;;;;;;;;;;;;;;10.28;45.71;100367.16;5096819;28;20269;-67
2023/12/18 04:18:34;;;;;;;;;;;;;;;10.26;45.83;100366.53;5096770;28;19981;-67
2023/12/18 04:20:59;;;;;;;;;;;;;;;10.23;45.89;100372.28;5096852;28;19916;-67
2023/12/18 04:23:25;;;;;;;;;;;;;;;10.25;45.70;100370.25;5096516;28;19968;-67
2023/12/18 04:25:50;;;;;;;;;;;;;;;10.23;45.53;100369.63;5102013;28;19911;-67
2023/12/18 04:28:15;;;;;;;;;;;;;;;10.26;46.10;100374.56;5117352;28;19912;-67
2023/12/18 04:30:41;;;;;;;;;;;;;;;10.25;45.83;100375.63;5116710;28;20287;-67
2023/12/18 04:33:06;;;;;;;;;;;;;;;10.15;45.62;100379.63;5116765;28;19915;-66
2023/12/18 04:35:31;;;;;;;;;;;;;;;10.11;45.63;100364.97;5109049;28;19919;-67
2023/12/18 04:37:57;;;;;;;;;;;;;;;10.10;46.27;100374.03;5096733;28;20411;-66
2023/12/18 04:40:22;;;;;;;;;;;;;;;10.07;46.29;100359.97;5096405;28;20360;-67
2023/12/18 04:42:48;;;;;;;;;;;;;;;10.04;46.70;100364.88;5096280;28;19912;-66
2023/12/18 04:45:13;;;;;;;;;;;;;;;9.94;46.59;100359.03;5096472;28;19919;-67
2023/12/18 04:47:39;;;;;;;;;;;;;;;9.94;46.87;100377.81;5096441;28;19957;-67
2023/12/18 04:50:04;;;;;;;;;;;;;;;9.95;47.11;100385.63;5096263;28;19999;-67
2023/12/18 04:52:29;;;;;;;;;;;;;;;10.14;46.63;100392.25;5116095;28;20007;-68
2023/12/18 04:54:55;;;;;;;;;;;;;;;10.16;46.32;100378.59;5106013;28;20366;-67
2023/12/18 04:57:20;;;;;;;;;;;;;;;10.14;46.58;100391.38;5095973;28;19912;-67
2023/12/18 04:59:46;;;;;;;;;;;;;;;10.17;46.25;100382.97;5096186;28;20425;-67
2023/12/18 05:02:11;;;;;;;;;;;;;;;10.20;45.95;100394.16;5095688;28;19920;-67
2023/12/18 05:04:37;;;;;;;;;;;;;;;10.26;46.54;100405.97;5094985;28;19981;-67
2023/12/18 05:07:02;;;;;;;;;;;;;;;10.28;46.02;100402.03;5096235;28;20256;-67
2023/12/18 05:09:28;;;;;;;;;;;;;;;10.33;46.46;100416.78;5095648;28;19943;-67
2023/12/18 05:11:53;;;;;;;;;;;;;;;10.38;46.66;100414.34;5095599;28;19928;-67
2023/12/18 05:14:18;;;;;;;;;;;;;;;10.43;45.84;100417.28;5095868;28;20287;-67
2023/12/18 05:16:44;;;;;;;;;;;;;;;10.45;46.03;100417.91;5108586;28;19912;-67
2023/12/18 05:19:09;;;;;;;;;;;;;;;10.49;45.99;100421.03;5100723;28;19912;-67
2023/12/18 05:21:35;;;;;;;;;;;;;;;10.52;46.27;100410.75;5095477;28;19916;-67
2023/12/18 05:24:00;;;;;;;;;;;;;;;10.58;46.11;100422.56;5095295;28;19916;-67
2023/12/18 05:26:25;;;;;;;;;;;;;;;10.62;46.13;100418.47;5095748;28;19947;-67
2023/12/18 05:28:51;;;;;;;;;;;;;;;10.65;46.06;100418.06;5095214;28;19961;-68
2023/12/18 05:31:18;;;;;;;;;;;;;;;10.68;45.85;100424.91;5095491;28;20383;-67
2023/12/18 05:33:43;;;;;;;;;;;;;;;10.69;46.09;100422.03;5095695;28;19963;-67
2023/12/18 05:36:09;;;;;;;;;;;;;;;10.71;45.70;100421.84;5095286;28;20372;-67
2023/12/18 05:38:34;;;;;;;;;;;;;;;10.70;45.30;100422.84;5077387;28;19927;-67
2023/12/18 05:41:00;;;;;;;;;;;;;;;10.69;45.39;100419.34;5095429;28;19930;-67
2023/12/18 05:43:25;;;;;;;;;;;;;;;10.68;45.73;100417.69;5095270;28;20345;-66
2023/12/18 05:45:51;;;;;;;;;;;;;;;10.69;45.86;100423.88;5095445;28;19966;-66
2023/12/18 05:48:16;;;;;;;;;;;;;;;10.71;46.13;100419.97;5095177;28;19931;-67
2023/12/18 05:50:42;;;;;;;;;;;;;;;10.75;45.48;100425.78;5099891;28;19919;-66
2023/12/18 05:53:07;;;;;;;;;;;;;;;10.78;45.41;100422.72;5115734;28;19974;-66
2023/12/18 05:55:33;;;;;;;;;;;;;;;10.81;45.63;100438.44;5114789;28;19942;-67
2023/12/18 05:57:58;;;;;;;;;;;;;;;10.82;45.41;100440.09;5114873;28;19916;-67
2023/12/18 06:00:23;;;;;;;;;;;;;;;10.85;45.58;100435.16;5115079;28;20002;-67
2023/12/18 06:02:49;;;;;;;;;;;;;;;10.87;45.76;100443.03;5102055;28;19912;-67
2023/12/18 06:05:14;;;;;;;;;;;;;;;10.38;45.99;100360.66;5095055;28;19920;-67
2023/12/18 06:07:41;;;;;;;;;;;;;;;10.93;45.31;100453.00;5100592;28;19912;-67
2023/12/18 06:10:06;;;;;;;;;;;;;;;10.96;45.30;100447.22;5094942;28;19918;-67
2023/12/18 06:12:32;;;;;;;;;;;;;;;10.97;45.74;100464.19;5094420;28;20006;-67
2023/12/18 06:14:57;;;;;;;;;;;;;;;10.97;45.16;100456.94;5094408;28;19912;-66
2023/12/18 06:17:23;;;;;;;;;;;;;;;11.01;45.11;100458.22;5095754;28;19912;-67
2023/12/18 06:19:49;;;;;;;;;;;;;;;11.03;45.55;100469.59;5095783;28;19918;-67
2023/12/18 06:22:14;;;;;;;;;;;;;;;11.06;45.64;100459.50;5095333;28;20388;-67
2023/12/18 06:24:39;;;;;;;;;;;;;;;11.03;44.70;100458.84;5094838;28;20288;-67
2023/12/18 06:27:05;;;;;;;;;;;;;;;11.04;45.03;100457.81;5094371;28;19916;-67
2023/12/18 06:29:30;;;;;;;;;;;;;;;11.04;45.34;100455.13;5094224;28;19916;-67
2023/12/18 06:31:56;;;;;;;;;;;;;;;11.08;45.25;100457.44;5094633;28;20435;-68
2023/12/18 06:34:21;;;;;;;;;;;;;;;11.11;44.70;100471.31;5094444;28;20280;-67
2023/12/18 06:36:46;;;;;;;;;;;;;;;11.15;45.02;100472.56;5094191;28;19923;-67
2023/12/18 06:39:12;;;;;;;;;;;;;;;11.15;45.04;100472.56;5094171;28;19912;-67
2023/12/18 06:41:38;;;;;;;;;;;;;;;11.15;45.04;100467.19;5094119;28;20421;-68
2023/12/18 06:44:03;;;;;;;;;;;;;;;11.17;45.13;100472.38;5094127;28;19942;-68
2023/12/18 06:46:29;;;;;;;;;;;;;;;11.16;44.83;100474.25;5093918;28;19920;-68
2023/12/18 06:48:55;;;;;;;;;;;;;;;11.17;44.55;100483.94;5093802;28;19916;-68
2023/12/18 06:51:20;;;;;;;;;;;;;;;11.11;44.87;100478.53;5104508;28;19912;-68
2023/12/18 06:53:46;;;;;;;;;;;;;;;11.08;44.78;100468.19;5113615;28;20317;-68
2023/12/18 06:56:12;;;;;;;;;;;;;;;11.08;44.93;100479.75;5097980;28;19935;-68
2023/12/18 06:58:37;;;;;;;;;;;;;;;11.03;44.46;100484.88;5094057;28;20354;-67
2023/12/18 07:01:03;;;;;;;;;;;;;;;11.01;44.76;100486.94;5093568;28;19923;-67
2023/12/18 07:03:28;;;;;;;;;;;;;;;10.99;44.91;100487.13;5093648;28;19920;-67
2023/12/18 07:05:54;;;;;;;;;;;;;;;10.94;45.04;100494.13;5093889;28;19912;-67
2023/12/18 07:08:20;;;;;;;;;;;;;;;10.93;44.82;100481.72;5093769;28;19965;-67
2023/12/18 07:10:45;;;;;;;;;;;;;;;10.93;44.81;100487.09;5075422;28;19916;-68
2023/12/18 07:13:11;;;;;;;;;;;;;;;10.92;45.31;100486.28;5093343;28;19942;-67
2023/12/18 07:15:36;;;;;;;;;;;;;;;10.92;45.19;100480.91;5093538;28;19919;-67
2023/12/18 07:18:03;;;;;;;;;;;;;;;10.86;44.73;100492.41;5093810;28;19915;-68
2023/12/18 07:20:29;;;;;;;;;;;;;;;10.83;44.79;100477.50;5094168;28;19912;-67
2023/12/18 07:22:54;;;;;;;;;;;;;;;10.74;44.93;100486.75;5093955;28;20347;-67
2023/12/18 07:25:19;;;;;;;;;;;;;;;10.72;45.42;100488.78;5094420;28;19919;-67
2023/12/18 07:27:45;;;;;;;;;;;;;;;10.74;45.00;100485.91;5096227;28;20383;-67
2023/12/18 07:30:11;;;;;;;;;;;;;;;10.75;45.36;100496.44;5100772;28;19912;-67
2023/12/18 07:32:37;;;;;;;;;;;;;;;10.70;45.39;100492.69;5099151;28;19912;-67
2023/12/18 07:35:02;;;;;;;;;;;;;;;10.68;45.52;100495.59;5100154;28;20001;-67
2023/12/18 07:37:28;;;;;;;;;;;;;;;10.68;45.40;100498.28;5100226;28;19951;-67
2023/12/18 07:39:55;;;;;;;;;;;;;;;10.71;45.09;100497.88;5100629;28;19912;-67
2023/12/18 07:42:20;;;;;;;;;;;;;;;10.72;44.90;100504.91;5100597;28;20287;-67
2023/12/18 07:44:45;;;;;;;;;;;;;;;10.73;44.89;100501.19;5082105;28;19982;-67
2023/12/18 07:47:11;;;;;;;;;;;;;;;10.76;45.19;100511.56;5099064;28;19912;-67
2023/12/18 07:49:36;;;;;;;;;;;;;;;10.77;45.06;100515.06;5121417;28;20416;-67
2023/12/18 07:52:02;;;;;;;;;;;;;;;10.78;45.36;100516.72;5121827;28;19912;-67
2023/12/18 07:54:27;;;;;;;;;;;;;;;10.78;45.08;100514.06;5114608;28;19912;-67
2023/12/18 07:56:52;;;;;;;;;;;;;;;10.81;44.97;100524.41;5092680;28;20376;-67
2023/12/18 07:59:19;;;;;;;;;;;;;;;10.84;44.62;100522.16;5100933;28;19912;-66
2023/12/18 08:01:45;;;;;;;;;;;;;;;10.88;45.25;100522.59;5098542;28;19912;-66
2023/12/18 08:04:11;;;;;;;;;;;;;;;10.90;44.93;100517.88;5100150;28;19995;-67
2023/12/18 08:06:37;;;;;;;;;;;;;;;10.90;44.72;100507.13;5081884;28;19912;-69
2023/12/18 08:09:02;;;;;;;;;;;;;;;10.91;45.09;100514.16;5100179;28;19916;-70
2023/12/18 08:11:27;;;;;;;;;;;;;;;10.90;44.52;100512.50;5099607;28;20490;-69
2023/12/18 08:13:53;;;;;;;;;;;;;;;10.94;44.50;100518.28;5081802;28;20285;-70
2023/12/18 08:16:18;;;;;;;;;;;;;;;10.96;44.82;100522.47;5099698;28;20003;-69
2023/12/18 08:18:44;;;;;;;;;;;;;;;10.98;44.96;100524.97;5100029;28;20365;-70
2023/12/18 08:21:13;;;;;;;;;;;;;;;11.01;44.72;100530.78;5099437;28;19965;-69
2023/12/18 08:23:39;;;;;;;;;;;;;;;11.01;44.84;100524.56;5099606;28;19916;-69
2023/12/18 08:26:05;;;;;;;;;;;;;;;11.03;44.82;100523.34;5100119;28;19912;-69
2023/12/18 08:28:30;;;;;;;;;;;;;;;11.08;44.65;100530.00;5099660;28;19912;-70
2023/12/18 08:30:56;;;;;;;;;;;;;;;11.10;44.38;100527.94;5086288;28;20384;-69
2023/12/18 08:33:21;;;;;;;;;;;;;;;11.12;44.74;100520.50;5100051;28;19938;-69
2023/12/18 08:35:46;;;;;;;;;;;;;;;11.13;44.63;100523.00;5069186;28;20356;-69
2023/12/18 08:38:12;;;;;;;;;;;;;;;11.12;44.72;100526.69;5120092;28;19918;-69
2023/12/18 08:40:37;;;;;;;;;;;;;;;11.13;44.47;100533.75;5105648;28;19916;-69
2023/12/18 08:43:02;;;;;;;;;;;;;;;11.16;44.74;100524.47;5091840;28;19912;-69
2023/12/18 08:45:28;;;;;;;;;;;;;;;11.18;44.69;100522.41;5116755;28;19911;-70
2023/12/18 08:47:54;;;;;;;;;;;;;;;11.22;44.68;100529.06;5116572;28;19912;-70
2023/12/18 08:50:20;;;;;;;;;;;;;;;11.24;44.37;100518.94;5098235;28;19943;-69
2023/12/18 08:52:45;;;;;;;;;;;;;;;11.25;44.22;100523.28;5116576;28;19922;-69
2023/12/18 08:55:11;;;;;;;;;;;;;;;11.28;44.25;100514.00;5097488;28;20522;-69
2023/12/18 08:57:36;;;;;;;;;;;;;;;11.31;44.35;100510.91;5096199;28;20337;-70
2023/12/18 09:00:04;;;;;;;;;;;;;;;11.31;44.58;100506.38;5095816;28;19954;-70
2023/12/18 09:02:29;;;;;;;;;;;;;;;11.32;44.42;100507.22;5068176;28;19916;-69
2023/12/18 09:04:55;;;;;;;;;;;;;;;11.33;44.07;100511.53;5095904;28;19927;-69
2023/12/18 09:07:20;;;;;;;;;;;;;;;11.07;44.61;100461.13;5095779;28;19912;-69
2023/12/18 09:09:45;;;;;;;;;;;;;;;11.35;44.52;100502.25;5095822;28;20029;-69
2023/12/18 09:12:11;;;;;;;;;;;;;;;11.41;44.14;100506.84;5095344;28;19999;-69
2023/12/18 09:14:36;;;;;;;;;;;;;;;11.43;43.99;100507.47;5077780;28;19977;-69
2023/12/18 09:17:02;;;;;;;;;;;;;;;11.43;44.67;100498.59;5095661;28;20023;-69
2023/12/18 09:19:27;;;;;;;;;;;;;;;11.47;44.41;100504.41;5095639;28;19961;-69
2023/12/18 09:21:52;;;;;;;;;;;;;;;11.49;44.38;100505.03;5095592;28;19961;-69
2023/12/18 09:24:20;;;;;;;;;;;;;;;11.53;44.10;100514.34;5095563;28;19969;-69
2023/12/18 09:26:45;;;;;;;;;;;;;;;11.57;44.34;100508.38;5085770;28;19916;-69
2023/12/18 09:29:11;;;;;;;;;;;;;;;11.63;43.82;100512.16;5095466;28;19935;-69
2023/12/18 09:31:36;;;;;;;;;;;;;;;11.67;44.03;100512.56;5080900;28;19912;-69
2023/12/18 09:34:02;;;;;;;;;;;;;;;11.69;43.81;100522.09;5115819;28;19911;-69
2023/12/18 09:36:27;;;;;;;;;;;;;;;11.69;44.17;100524.78;5099930;28;19919;-69
2023/12/18 09:38:53;;;;;;;;;;;;;;;11.69;43.74;100516.72;5095189;28;20368;-69
2023/12/18 09:41:24;;;;;;;;;;;;;;;11.74;43.97;100524.19;5095138;28;20354;-69
2023/12/18 09:43:52;;;;;;;;;;;;;;;11.75;43.62;100518.59;5094998;28;19916;-69
2023/12/18 09:46:19;;;;;;;;;;;;;;;11.75;44.00;100523.97;5094978;28;19916;-69
2023/12/18 09:48:45;;;;;;;;;;;;;;;11.77;43.80;100526.47;5076571;28;20384;-69
2023/12/18 09:51:15;;;;;;;;;;;;;;;11.74;44.23;100533.09;5100304;28;19915;-69
2023/12/18 09:53:40;;;;;;;;;;;;;;;11.76;44.01;100530.22;5094319;28;19919;-69
2023/12/18 09:56:06;;;;;;;;;;;;;;;11.76;43.94;100524.81;5093261;28;19912;-69
2023/12/18 09:58:32;;;;;;;;;;;;;;;11.79;44.17;100537.84;5094014;28;19916;-69
2023/12/18 10:00:59;;;;;;;;;;;;;;;11.83;43.71;100525.69;5093650;28;19960;-69
2023/12/18 10:03:24;;;;;;;;;;;;;;;11.81;44.14;100519.66;5075065;28;20015;-69
2023/12/18 10:05:49;;;;;;;;;;;;;;;11.88;43.35;100533.16;5073535;28;20007;-69
2023/12/18 10:08:15;;;;;;;;;;;;;;;11.88;43.33;100533.97;5073387;28;19955;-69
2023/12/18 10:10:43;;;;;;;;;;;;;;;11.88;43.25;100527.78;5073537;28;19912;-69
2023/12/18 10:13:11;;;;;;;;;;;;;;;11.89;43.57;100529.44;5072922;28;20007;-69
2023/12/18 10:15:39;;;;;;;;;;;;;;;11.90;43.10;100526.56;5091104;28;19912;-69
2023/12/18 10:18:05;;;;;;;;;;;;;;;11.89;43.20;100524.88;5093387;28;19912;-69
2023/12/18 10:20:31;;;;;;;;;;;;;;;11.89;43.22;100516.00;5080153;28;19923;-69
2023/12/18 10:22:58;;;;;;;;;;;;;;;11.87;43.28;100516.19;5099648;28;19912;-69
2023/12/18 10:25:24;;;;;;;;;;;;;;;11.84;43.17;100505.81;5094335;28;20356;-69
2023/12/18 10:27:53;;;;;;;;;;;;;;;11.86;43.50;100508.31;5094634;28;19912;-69
2023/12/18 10:30:18;;;;;;;;;;;;;;;11.88;43.20;100498.16;5076099;28;19916;-69
2023/12/18 10:32:43;;;;;;;;;;;;;;;11.86;43.32;100487.59;5076270;28;19957;-69
2023/12/18 10:35:09;;;;;;;;;;;;;;;11.85;43.11;100490.47;5094024;28;20300;-69
2023/12/18 10:37:35;;;;;;;;;;;;;;;11.88;43.11;100495.47;5094236;28;19912;-69
2023/12/18 10:40:04;;;;;;;;;;;;;;;11.89;43.36;100495.28;5094120;28;20407;-69
2023/12/18 10:42:36;;;;;;;;;;;;;;;11.92;43.07;100486.00;5093824;28;19990;-69
2023/12/18 10:45:08;;;;;;;;;;;;;;;11.94;42.80;100482.09;5075695;28;19923;-69
2023/12/18 10:47:33;;;;;;;;;;;;;;;11.97;42.96;100488.91;5093879;28;19923;-69
2023/12/18 10:50:03;;;;;;;;;;;;;;;11.96;43.27;100482.72;5093632;28;19916;-69
2023/12/18 10:52:31;;;;;;;;;;;;;;;12.11;42.86;100485.22;5093911;28;19919;-69
2023/12/18 10:55:00;;;;;;;;;;;;;;;12.14;42.76;100486.69;5092839;28;19919;-69
2023/12/18 10:57:29;;;;;;;;;;;;;;;12.17;42.68;100487.09;5058806;28;19952;-69
2023/12/18 10:59:55;;;;;;;;;;;;;;;12.13;42.81;100488.56;5093835;28;20385;-69
2023/12/18 11:02:21;;;;;;;;;;;;;;;11.99;42.90;100479.59;5080740;28;19912;-69
2023/12/18 11:04:47;;;;;;;;;;;;;;;12.03;43.43;100481.88;5093538;28;20269;-69
2023/12/18 11:07:16;;;;;;;;;;;;;;;12.04;43.38;100488.94;5075568;28;19912;-69
2023/12/18 11:09:42;;;;;;;;;;;;;;;12.06;43.28;100484.19;5093881;28;19965;-68
2023/12/18 11:12:08;;;;;;;;;;;;;;;12.11;43.08;100473.63;5083257;28;19919;-68
2023/12/18 11:14:43;;;;;;;;;;;;;;;12.13;43.05;100477.78;5105045;28;19919;-68
2023/12/18 11:17:23;;;;;;;;;;;;;;;12.14;42.90;100475.91;5093647;28;20339;-68
2023/12/18 11:19:48;;;;;;;;;;;;;;;12.10;43.26;100472.78;5075691;28;19919;-69
2023/12/18 11:22:16;;;;;;;;;;;;;;;12.11;42.82;100470.94;5075964;28;20273;-69
2023/12/18 11:24:44;;;;;;;;;;;;;;;12.11;43.08;100466.41;5093513;28;19916;-69
2023/12/18 11:27:10;;;;;;;;;;;;;;;12.12;43.33;100459.13;5093488;28;19995;-69
2023/12/18 11:29:43;;;;;;;;;;;;;;;12.12;42.90;100459.97;5093382;28;19916;-69
2023/12/18 11:32:12;;;;;;;;;;;;;;;12.16;43.05;100471.16;5093533;28;19995;-69
2023/12/18 11:34:38;;;;;;;;;;;;;;;12.20;43.20;100475.94;5093710;28;20249;-69
2023/12/18 11:37:06;;;;;;;;;;;;;;;12.21;43.10;100479.44;5093281;28;20330;-69
2023/12/18 11:39:40;;;;;;;;;;;;;;;12.24;42.83;100478.22;5093109;28;19919;-69
2023/12/18 11:42:10;;;;;;;;;;;;;;;12.26;42.81;100465.34;5093212;28;20325;-69
2023/12/18 11:44:36;;;;;;;;;;;;;;;12.24;42.97;100459.34;5085533;28;19947;-69
2023/12/18 11:47:02;;;;;;;;;;;;;;;12.23;42.95;100450.47;5075170;28;19912;-69
2023/12/18 11:49:27;;;;;;;;;;;;;;;12.22;42.78;100456.91;5093255;28;19935;-68
2023/12/18 11:51:52;;;;;;;;;;;;;;;12.23;42.60;100466.63;5101240;28;19919;-68
2023/12/18 11:54:23;;;;;;;;;;;;;;;12.21;42.64;100455.22;5092593;28;19912;-69
2023/12/18 11:56:50;;;;;;;;;;;;;;;12.16;42.61;100445.06;5075156;28;19916;-69
2023/12/18 11:59:18;;;;;;;;;;;;;;;12.13;42.91;100445.47;5074959;28;19916;-69
2023/12/18 12:01:44;;;;;;;;;;;;;;;12.10;42.39;100429.72;5084095;28;20297;-69
2023/12/18 12:04:12;;;;;;;;;;;;;;;12.11;42.69;100425.16;5069771;28;20004;-69
2023/12/18 12:06:38;;;;;;;;;;;;;;;12.11;42.63;100417.94;5072760;28;19912;-69
2023/12/18 12:09:06;;;;;;;;;;;;;;;12.14;42.60;100412.13;5072776;28;19917;-69
2023/12/18 12:11:31;;;;;;;;;;;;;;;12.12;42.94;100421.44;5054753;28;19951;-69
2023/12/18 12:13:57;;;;;;;;;;;;;;;12.10;42.66;100420.81;5076370;28;19958;-69
2023/12/18 12:16:23;;;;;;;;;;;;;;;12.08;42.93;100406.75;5096391;28;19912;-69
2023/12/18 12:18:54;;;;;;;;;;;;;;;12.07;42.90;100408.63;5078531;28;19939;-69
2023/12/18 12:21:21;;;;;;;;;;;;;;;12.06;42.78;100406.94;5096799;28;19912;-69
2023/12/18 12:23:49;;;;;;;;;;;;;;;12.06;42.72;100412.34;5096406;28;20384;-70
2023/12/18 12:26:19;;;;;;;;;;;;;;;12.04;42.76;100411.72;5096201;28;20365;-68
2023/12/18 12:28:44;;;;;;;;;;;;;;;12.08;43.14;100409.44;5096602;28;19923;-68
2023/12/18 12:31:10;;;;;;;;;;;;;;;12.07;42.92;100402.38;5096380;28;19912;-69